createdAt,value
2022-10-10T00:02:48.409Z,26.67
2022-10-10T00:05:30.984Z,26.97
2022-10-10T00:08:19.787Z,26.87
2022-10-10T00:11:02.047Z,26.61
2022-10-10T00:13:50.766Z,26.88
2022-10-10T00:16:33.019Z,26.70
2022-10-10T00:19:21.717Z,26.99
2022-10-10T00:22:04.039Z,26.68
2022-10-10T00:24:52.712Z,26.65
2022-10-10T00:27:35.013Z,26.93
2022-10-10T00:30:23.786Z,26.55
2022-10-10T00:33:12.012Z,26.62
2022-10-10T00:35:53.722Z,26.62
2022-10-10T00:38:42.733Z,26.93
2022-10-10T00:41:27.906Z,27.00
2022-10-10T00:44:21.731Z,26.86
2022-10-10T00:47:10.651Z,26.51
2022-10-10T00:50:00.772Z,26.69
2022-10-10T00:52:42.973Z,26.29
2022-10-10T00:55:31.726Z,26.45
2022-10-10T00:58:22.773Z,26.50
2022-10-10T01:01:11.041Z,26.89
2022-10-10T01:03:53.705Z,27.01
2022-10-10T01:06:42.631Z,26.63
2022-10-10T01:09:31.703Z,26.52
2022-10-10T01:12:38.763Z,26.34
2022-10-10T01:16:17.011Z,26.46
2022-10-10T01:19:20.702Z,26.42
2022-10-10T01:22:09.637Z,26.47
2022-10-10T01:25:23.696Z,26.28
2022-10-10T01:28:40.548Z,26.62
2022-10-10T01:31:32.696Z,26.50
2022-10-10T01:35:02.990Z,26.30
2022-10-10T01:37:57.709Z,26.55
2022-10-10T01:41:16.761Z,26.41
2022-10-10T01:44:07.761Z,26.57
2022-10-10T01:46:50.096Z,26.61
2022-10-10T01:49:41.717Z,26.33
2022-10-10T01:52:44.992Z,26.35
2022-10-10T01:55:57.712Z,26.46
2022-10-10T01:58:52.685Z,26.33
2022-10-10T02:02:19.763Z,26.65
2022-10-10T02:05:19.012Z,26.57
2022-10-10T02:08:30.028Z,26.23
2022-10-10T02:11:17.988Z,26.56
2022-10-10T02:14:23.709Z,26.81
2022-10-10T02:17:16.610Z,26.83
2022-10-10T02:20:08.787Z,26.40
2022-10-10T02:22:53.281Z,26.79
2022-10-10T02:25:49.717Z,26.64
2022-10-10T02:28:47.017Z,26.65
2022-10-10T02:31:55.746Z,26.89
2022-10-10T02:34:44.024Z,26.89
2022-10-10T02:37:33.726Z,27.04
2022-10-10T02:40:28.710Z,26.87
2022-10-10T02:43:21.614Z,27.15
2022-10-10T02:46:14.786Z,26.78
2022-10-10T02:48:56.985Z,27.10
2022-10-10T02:51:46.773Z,27.28
2022-10-10T02:58:16.714Z,26.89
2022-10-10T03:01:05.776Z,27.17
2022-10-10T03:03:48.018Z,26.72
2022-10-10T03:06:36.761Z,27.11
2022-10-10T03:09:19.069Z,27.60
2022-10-10T03:12:07.718Z,27.18
2022-10-10T03:14:56.715Z,27.78
2022-10-10T03:17:45.743Z,27.68
2022-10-10T03:20:28.008Z,27.70
2022-10-10T03:23:17.718Z,27.61
2022-10-10T03:26:01.147Z,27.68
2022-10-10T03:28:49.756Z,27.74
2022-10-10T03:31:31.993Z,27.52
2022-10-10T03:34:20.713Z,27.61
2022-10-10T03:37:09.718Z,28.00
2022-10-10T03:39:51.923Z,28.06
2022-10-10T03:42:40.730Z,27.77
2022-10-10T03:45:23.191Z,27.68
2022-10-10T03:48:11.801Z,27.76
2022-10-10T03:51:00.986Z,27.69
2022-10-10T03:53:43.700Z,27.73
2022-10-10T03:56:32.633Z,27.43
2022-10-10T03:59:21.765Z,27.69
2022-10-10T04:02:10.032Z,27.95
2022-10-10T04:04:52.706Z,28.01
2022-10-10T04:07:42.625Z,27.82
2022-10-10T04:10:25.714Z,27.86
2022-10-10T04:13:14.021Z,28.26
2022-10-10T04:16:00.705Z,28.08
2022-10-10T04:18:49.734Z,28.31
2022-10-10T04:21:31.989Z,28.49
2022-10-10T04:24:20.706Z,28.88
2022-10-10T04:27:02.976Z,29.20
2022-10-10T04:29:51.723Z,29.76
2022-10-10T04:32:34.174Z,29.35
2022-10-10T04:35:22.726Z,29.00
2022-10-10T04:38:05.654Z,28.96
2022-10-10T04:40:57.730Z,29.22
2022-10-10T04:43:39.980Z,29.25
2022-10-10T04:46:28.698Z,29.13
2022-10-10T04:49:11.167Z,29.05
2022-10-10T04:51:59.700Z,29.54
2022-10-10T04:54:42.000Z,29.85
2022-10-10T04:57:30.704Z,30.09
2022-10-10T05:00:26.708Z,30.32
2022-10-10T05:03:11.338Z,30.57
2022-10-10T05:05:59.751Z,30.20
2022-10-10T05:08:48.002Z,30.04
2022-10-10T05:11:29.715Z,29.99
2022-10-10T05:14:11.888Z,30.19
2022-10-10T05:17:00.690Z,30.84
2022-10-10T05:19:49.598Z,30.39
2022-10-10T05:22:38.710Z,30.28
2022-10-10T05:25:21.320Z,30.47
2022-10-10T05:28:09.741Z,30.13
2022-10-10T05:30:53.739Z,30.48
2022-10-10T05:33:42.766Z,30.89
2022-10-10T05:36:32.079Z,30.71
2022-10-10T05:39:14.772Z,30.60
2022-10-10T05:41:57.027Z,30.56
2022-10-10T05:44:46.684Z,30.18
2022-10-10T05:47:35.714Z,29.89
2022-10-10T05:50:43.080Z,30.06
2022-10-10T05:53:34.734Z,29.80
2022-10-10T05:56:18.209Z,29.82
2022-10-10T05:59:06.733Z,29.12
2022-10-10T06:01:49.125Z,29.21
2022-10-10T06:04:38.757Z,29.83
2022-10-10T06:07:21.050Z,29.35
2022-10-10T06:10:09.701Z,30.17
2022-10-10T06:12:58.688Z,29.89
2022-10-10T06:15:47.992Z,30.18
2022-10-10T06:18:30.744Z,30.35
2022-10-10T06:21:21.130Z,30.29
2022-10-10T06:24:04.137Z,30.47
2022-10-10T06:26:45.985Z,30.36
2022-10-10T06:29:34.753Z,30.40
2022-10-10T06:32:23.985Z,30.06
2022-10-10T06:35:05.761Z,30.07
2022-10-10T06:37:55.009Z,30.16
2022-10-10T06:40:36.778Z,30.64
2022-10-10T06:43:25.963Z,30.48
2022-10-10T06:46:08.715Z,30.70
2022-10-10T06:48:56.990Z,31.29
2022-10-10T06:51:39.779Z,30.67
2022-10-10T06:54:28.988Z,30.78
2022-10-10T06:57:11.753Z,30.70
2022-10-10T07:00:30.642Z,30.62
2022-10-10T07:03:20.740Z,30.73
2022-10-10T07:06:06.577Z,30.77
2022-10-10T07:08:55.692Z,30.30
2022-10-10T07:11:38.071Z,30.02
2022-10-10T07:14:26.745Z,30.69
2022-10-10T07:17:09.107Z,30.80
2022-10-10T07:19:57.695Z,30.54
2022-10-10T07:22:40.124Z,30.36
2022-10-10T07:25:28.690Z,29.31
2022-10-10T07:28:17.654Z,28.98
2022-10-10T07:31:11.750Z,27.96
2022-10-10T07:34:02.694Z,28.15
2022-10-10T07:36:47.862Z,28.02
2022-10-10T07:39:40.689Z,27.53
2022-10-10T07:42:29.950Z,27.70
2022-10-10T07:45:13.710Z,27.91
2022-10-10T07:48:01.982Z,27.40
2022-10-10T07:50:47.712Z,27.67
2022-10-10T07:53:35.974Z,27.57
2022-10-10T07:56:18.676Z,27.83
2022-10-10T07:59:13.745Z,27.69
2022-10-10T08:02:03.189Z,27.75
2022-10-10T08:04:45.764Z,27.79
2022-10-10T08:07:33.966Z,27.54
2022-10-10T08:10:17.761Z,27.60
2022-10-10T08:13:06.047Z,28.02
2022-10-10T08:15:48.662Z,27.83
2022-10-10T08:18:38.146Z,28.07
2022-10-10T08:21:21.683Z,28.21
2022-10-10T08:24:10.977Z,28.14
2022-10-10T08:26:53.686Z,28.08
2022-10-10T08:29:42.041Z,27.54
2022-10-10T08:32:24.370Z,27.60
2022-10-10T08:35:13.951Z,27.33
2022-10-10T08:37:55.700Z,27.57
2022-10-10T08:41:03.099Z,26.90
2022-10-10T08:43:58.706Z,27.01
2022-10-10T08:46:43.898Z,27.07
2022-10-10T08:49:53.716Z,27.48
2022-10-10T08:52:58.731Z,27.72
2022-10-10T08:55:46.188Z,27.87
2022-10-10T08:58:46.768Z,27.73
2022-10-10T09:02:18.779Z,28.08
2022-10-10T09:04:47.718Z,27.99
2022-10-10T09:07:45.803Z,28.30
2022-10-10T09:10:58.021Z,28.46
2022-10-10T09:13:49.968Z,28.40
2022-10-10T09:16:55.760Z,28.26
2022-10-10T09:19:57.960Z,28.40
2022-10-10T09:22:48.720Z,28.93
2022-10-10T09:25:47.002Z,29.19
2022-10-10T09:28:46.826Z,29.14
2022-10-10T09:31:41.412Z,29.00
2022-10-10T09:34:35.721Z,29.25
2022-10-10T09:37:48.394Z,29.49
2022-10-10T09:40:34.692Z,29.67
2022-10-10T09:43:28.033Z,29.60
2022-10-10T09:46:10.695Z,29.44
2022-10-10T09:49:00.994Z,29.51
2022-10-10T09:51:42.683Z,29.60
2022-10-10T09:54:31.964Z,29.47
2022-10-10T09:57:14.750Z,29.52
2022-10-10T10:00:10.568Z,29.96
2022-10-10T10:03:28.678Z,29.76
2022-10-10T10:06:10.963Z,29.72
2022-10-10T10:09:01.694Z,29.42
2022-10-10T10:11:47.000Z,29.81
2022-10-10T10:14:44.743Z,29.79
2022-10-10T10:17:32.013Z,30.07
2022-10-10T10:20:38.772Z,30.03
2022-10-10T10:24:19.117Z,30.04
2022-10-10T10:27:24.706Z,30.16
2022-10-10T10:30:06.953Z,29.77
2022-10-10T10:33:39.686Z,30.05
2022-10-10T10:36:57.674Z,29.97
2022-10-10T10:39:51.951Z,30.05
2022-10-10T10:42:49.006Z,30.07
2022-10-10T10:45:45.783Z,30.16
2022-10-10T10:48:54.699Z,30.13
2022-10-10T10:51:45.148Z,30.10
2022-10-10T10:54:59.762Z,29.79
2022-10-10T10:59:05.461Z,30.14
2022-10-10T11:02:06.218Z,30.03
2022-10-10T11:05:29.650Z,30.18
2022-10-10T11:08:50.680Z,30.06
2022-10-10T11:11:55.013Z,29.91
2022-10-10T11:14:55.761Z,29.93
2022-10-10T11:17:52.942Z,29.77
2022-10-10T11:20:46.734Z,29.74
2022-10-10T11:23:40.198Z,29.77
2022-10-10T11:26:45.674Z,29.61
2022-10-10T11:29:39.089Z,29.38
2022-10-10T11:32:36.732Z,29.37
2022-10-10T11:35:33.179Z,29.69
2022-10-10T11:38:25.705Z,29.80
2022-10-10T11:41:59.686Z,29.54
2022-10-10T11:44:47.943Z,29.72
2022-10-10T11:47:42.670Z,29.85
2022-10-10T11:50:30.367Z,29.50
2022-10-10T11:53:43.684Z,29.44
2022-10-10T11:56:41.263Z,29.54
2022-10-10T11:59:39.065Z,29.56
2022-10-10T12:02:29.979Z,29.51
2022-10-10T12:05:13.751Z,29.45
2022-10-10T12:08:08.033Z,29.39
2022-10-10T12:11:08.702Z,29.42
2022-10-10T12:14:01.943Z,29.38
2022-10-10T12:16:52.702Z,29.25
2022-10-10T12:19:41.964Z,29.18
2022-10-10T12:22:37.674Z,29.09
2022-10-10T12:25:33.949Z,29.21
2022-10-10T12:28:21.783Z,28.93
2022-10-10T12:31:13.035Z,28.94
2022-10-10T12:33:55.670Z,28.70
2022-10-10T12:37:07.616Z,28.83
2022-10-10T12:40:14.097Z,28.92
2022-10-10T12:43:03.739Z,28.90
2022-10-10T12:45:45.998Z,28.96
2022-10-10T12:48:34.707Z,29.03
2022-10-10T12:51:30.136Z,28.92
2022-10-10T12:54:49.665Z,28.89
2022-10-10T12:57:35.178Z,28.95
2022-10-10T13:00:32.059Z,28.97
2022-10-10T13:03:29.035Z,29.02
2022-10-10T13:06:32.671Z,28.87
2022-10-10T13:09:25.052Z,28.85
2022-10-10T13:12:15.673Z,28.91
2022-10-10T13:14:58.105Z,28.83
2022-10-10T13:17:49.685Z,28.64
2022-10-10T13:20:51.731Z,28.80
2022-10-10T13:23:41.942Z,28.85
2022-10-10T13:26:35.655Z,28.75
2022-10-10T13:29:44.679Z,28.81
2022-10-10T13:32:38.669Z,28.73
2022-10-10T13:35:34.674Z,28.60
2022-10-10T13:38:20.114Z,28.59
2022-10-10T13:41:11.651Z,28.59
2022-10-10T13:43:54.027Z,28.68
2022-10-10T13:46:43.834Z,28.57
2022-10-10T13:49:35.042Z,28.39
2022-10-10T13:52:31.752Z,28.55
2022-10-10T13:55:35.117Z,28.52
2022-10-10T13:58:24.688Z,28.48
2022-10-10T14:01:21.178Z,28.42
2022-10-10T14:04:17.992Z,28.35
2022-10-10T14:07:34.680Z,28.46
2022-10-10T14:10:22.676Z,28.18
2022-10-10T14:13:14.738Z,28.01
2022-10-10T14:16:28.964Z,27.89
2022-10-10T14:19:11.737Z,27.50
2022-10-10T14:21:59.998Z,27.61
2022-10-10T14:24:42.737Z,27.62
2022-10-10T14:27:36.937Z,27.64
2022-10-10T14:30:23.682Z,27.66
2022-10-10T14:33:20.982Z,27.75
2022-10-10T14:36:04.750Z,27.72
2022-10-10T14:38:52.931Z,27.71
2022-10-10T14:41:35.732Z,27.87
2022-10-10T14:44:23.973Z,27.79
2022-10-10T14:47:05.672Z,27.66
2022-10-10T14:49:57.648Z,27.65
2022-10-10T14:52:40.671Z,27.66
2022-10-10T14:55:29.472Z,27.39
2022-10-10T14:58:12.714Z,27.48
2022-10-10T15:01:03.298Z,27.72
2022-10-10T15:03:46.760Z,27.77
2022-10-10T15:06:49.963Z,27.61
2022-10-10T15:09:43.008Z,27.28
2022-10-10T15:12:35.987Z,27.38
2022-10-10T15:15:19.684Z,27.43
2022-10-10T15:18:26.655Z,27.36
2022-10-10T15:21:20.687Z,27.47
2022-10-10T15:24:02.948Z,27.54
2022-10-10T15:26:51.668Z,27.51
2022-10-10T15:29:40.071Z,27.48
2022-10-10T15:32:22.708Z,27.63
2022-10-10T15:35:11.767Z,27.54
2022-10-10T15:37:55.114Z,27.55
2022-10-10T15:40:43.710Z,27.39
2022-10-10T15:43:26.090Z,27.36
2022-10-10T15:46:16.700Z,27.39
2022-10-10T15:49:00.006Z,27.43
2022-10-10T15:51:53.686Z,27.38
2022-10-10T15:54:42.675Z,27.20
2022-10-10T15:57:24.981Z,27.26
2022-10-10T16:00:13.745Z,27.04
2022-10-10T16:02:56.020Z,27.34
2022-10-10T16:05:44.772Z,27.22
2022-10-10T16:08:33.968Z,27.27
2022-10-10T16:11:19.718Z,27.21
2022-10-10T16:14:08.613Z,27.14
2022-10-10T16:17:01.212Z,27.22
2022-10-10T16:19:49.979Z,27.19
2022-10-10T16:22:32.723Z,27.07
2022-10-10T16:25:23.176Z,27.09
2022-10-10T16:28:09.376Z,27.03
2022-10-10T16:31:02.046Z,27.07
2022-10-10T16:33:47.169Z,27.20
2022-10-10T16:36:38.692Z,27.12
2022-10-10T16:39:21.032Z,27.11
2022-10-10T16:42:09.709Z,27.15
2022-10-10T16:44:52.124Z,27.18
2022-10-10T16:47:41.793Z,27.15
2022-10-10T16:50:23.982Z,26.97
2022-10-10T16:53:12.682Z,26.91
2022-10-10T16:56:01.699Z,27.01
2022-10-10T16:58:44.243Z,27.02
2022-10-10T17:01:35.789Z,26.90
2022-10-10T17:04:18.117Z,26.69
2022-10-10T17:07:06.737Z,26.85
2022-10-10T17:09:56.127Z,26.92
2022-10-10T17:12:37.741Z,26.95
2022-10-10T17:15:26.970Z,26.89
2022-10-10T17:18:09.884Z,26.81
2022-10-10T17:20:59.111Z,26.62
2022-10-10T17:23:42.675Z,26.64
2022-10-10T17:26:33.767Z,26.63
2022-10-10T17:29:16.153Z,26.68
2022-10-10T17:32:06.783Z,26.70
2022-10-10T17:34:48.982Z,26.82
2022-10-10T17:37:37.722Z,26.73
2022-10-10T17:40:20.043Z,26.62
2022-10-10T17:43:11.597Z,26.70
2022-10-10T17:46:01.426Z,26.67
2022-10-10T17:48:58.703Z,26.65
2022-10-10T17:51:43.045Z,26.50
2022-10-10T17:54:31.704Z,26.59
2022-10-10T17:57:20.691Z,26.53
2022-10-10T18:00:16.846Z,26.48
2022-10-10T18:03:08.937Z,26.52
2022-10-10T18:05:50.665Z,26.54
2022-10-10T18:08:40.166Z,26.35
2022-10-10T18:11:27.725Z,26.33
2022-10-10T18:14:17.451Z,26.42
2022-10-10T18:17:00.731Z,26.50
2022-10-10T18:19:49.047Z,26.48
2022-10-10T18:22:31.689Z,26.44
2022-10-10T18:25:24.222Z,26.40
2022-10-10T18:28:07.882Z,26.46
2022-10-10T18:30:56.048Z,26.46
2022-10-10T18:33:38.741Z,26.48
2022-10-10T18:36:33.031Z,26.51
2022-10-10T18:39:19.689Z,26.50
2022-10-10T18:42:07.982Z,26.53
2022-10-10T18:44:50.707Z,26.61
2022-10-10T18:47:40.202Z,26.54
2022-10-10T18:50:22.727Z,26.64
2022-10-10T18:53:04.958Z,26.49
2022-10-10T18:55:53.713Z,26.51
2022-10-10T18:58:43.961Z,26.42
2022-10-10T19:01:43.756Z,26.50
2022-10-10T19:04:33.153Z,26.42
2022-10-10T19:07:15.675Z,26.38
2022-10-10T19:09:57.895Z,26.38
2022-10-10T19:12:47.662Z,26.40
2022-10-10T19:15:36.595Z,26.37
2022-10-10T19:18:19.717Z,26.33
2022-10-10T19:21:04.673Z,26.44
2022-10-10T19:23:53.670Z,26.51
2022-10-10T19:26:36.914Z,26.54
2022-10-10T19:29:26.746Z,26.37
2022-10-10T19:32:15.588Z,26.47
2022-10-10T19:34:58.680Z,26.36
2022-10-10T19:37:41.083Z,26.48
2022-10-10T19:40:29.974Z,26.36
2022-10-10T19:43:18.652Z,26.31
2022-10-10T19:46:01.357Z,26.27
2022-10-10T19:48:51.741Z,26.11
2022-10-10T19:51:35.939Z,26.23
2022-10-10T19:54:24.751Z,26.11
2022-10-10T19:57:07.131Z,26.09
2022-10-10T19:59:55.735Z,26.08
2022-10-10T20:02:52.935Z,25.97
2022-10-10T20:05:35.658Z,26.02
2022-10-10T20:08:24.673Z,26.01
2022-10-10T20:11:07.181Z,25.95
2022-10-10T20:13:59.670Z,26.02
2022-10-10T20:16:41.986Z,25.90
2022-10-10T20:19:30.654Z,25.88
2022-10-10T20:22:12.947Z,26.04
2022-10-10T20:25:01.649Z,25.92
2022-10-10T20:27:43.940Z,25.89
2022-10-10T20:30:32.988Z,25.96
2022-10-10T20:33:14.943Z,26.00
2022-10-10T20:36:03.891Z,26.15
2022-10-10T20:38:46.936Z,26.02
2022-10-10T20:41:38.686Z,26.00
2022-10-10T20:44:22.938Z,26.02
2022-10-10T20:47:11.667Z,26.07
2022-10-10T20:49:53.935Z,26.01
2022-10-10T20:52:42.680Z,26.03
2022-10-10T20:55:31.658Z,26.08
2022-10-10T20:58:13.842Z,26.15
2022-10-10T21:01:02.673Z,26.23
2022-10-10T21:03:46.365Z,26.33
2022-10-10T21:06:38.677Z,26.15
2022-10-10T21:09:20.916Z,26.17
2022-10-10T21:12:09.678Z,26.33
2022-10-10T21:14:58.568Z,26.25
2022-10-10T21:17:47.668Z,26.18
2022-10-10T21:20:36.580Z,26.11
2022-10-10T21:23:25.699Z,26.18
2022-10-10T21:26:28.972Z,26.07
2022-10-10T21:29:12.738Z,26.22
2022-10-10T21:31:54.844Z,26.10
2022-10-10T21:34:43.635Z,25.84
2022-10-10T21:37:28.205Z,25.93
2022-10-10T21:40:16.672Z,25.94
2022-10-10T21:43:05.025Z,25.89
2022-10-10T21:45:47.656Z,25.91
2022-10-10T21:48:29.833Z,25.76
2022-10-10T21:51:19.664Z,25.76
2022-10-10T21:54:08.733Z,25.78
2022-10-10T21:56:51.946Z,25.76
2022-10-10T21:59:40.678Z,25.66
2022-10-10T22:02:35.510Z,25.78
2022-10-10T22:05:39.649Z,25.90
2022-10-10T22:08:28.713Z,25.78
2022-10-10T22:11:12.922Z,25.70
2022-10-10T22:14:01.637Z,25.70
2022-10-10T22:16:50.659Z,25.65
2022-10-10T22:19:32.873Z,25.65
2022-10-10T22:22:21.726Z,25.70
2022-10-10T22:25:10.933Z,25.71
2022-10-10T22:27:57.113Z,25.70
2022-10-10T22:30:46.675Z,25.55
2022-10-10T22:33:28.921Z,25.77
2022-10-10T22:36:17.705Z,25.79
2022-10-10T22:38:59.945Z,25.76
2022-10-10T22:41:48.731Z,25.58
2022-10-10T22:44:30.914Z,25.72
2022-10-10T22:47:20.050Z,25.73
2022-10-10T22:50:01.958Z,25.72
2022-10-10T22:52:50.666Z,25.58
2022-10-10T22:55:32.970Z,25.68
2022-10-10T22:58:21.717Z,25.18
2022-10-10T23:01:14.006Z,25.33
2022-10-10T23:03:56.641Z,25.15
2022-10-10T23:06:46.007Z,25.15
2022-10-10T23:09:27.648Z,24.94
2022-10-10T23:12:16.935Z,25.11
2022-10-10T23:14:59.680Z,25.06
2022-10-10T23:17:47.914Z,24.72
2022-10-10T23:20:30.634Z,24.56
2022-10-10T23:23:18.936Z,24.98
2022-10-10T23:26:01.843Z,24.97
2022-10-10T23:28:46.710Z,25.19
2022-10-10T23:31:35.644Z,24.68
2022-10-10T23:34:24.649Z,24.70
2022-10-10T23:37:06.938Z,24.70
2022-10-10T23:39:55.641Z,24.79
2022-10-10T23:42:37.981Z,24.93
2022-10-10T23:45:26.634Z,24.78
2022-10-10T23:48:08.919Z,24.57
2022-10-10T23:50:58.037Z,24.80
2022-10-10T23:53:39.934Z,24.97
2022-10-10T23:56:28.651Z,24.64
2022-10-10T23:59:17.635Z,24.93
